createdAt,value
2019-02-19T00:01:33.707Z,213.07
2019-02-19T00:04:16.387Z,222.17
2019-02-19T00:06:57.379Z,212.80
2019-02-19T00:09:38.690Z,239.20
2019-02-19T00:12:21.504Z,211.30
2019-02-19T00:15:08.201Z,216.80
2019-02-19T00:17:51.099Z,267.13
2019-02-19T00:20:36.403Z,228.60
2019-02-19T00:23:19.558Z,205.53
2019-02-19T00:26:02.486Z,246.10
2019-02-19T00:28:45.678Z,212.23
2019-02-19T00:31:26.951Z,202.87
2019-02-19T00:34:08.749Z,234.83
2019-02-19T00:36:52.196Z,222.43
2019-02-19T00:39:33.081Z,196.77
2019-02-19T00:42:15.282Z,251.27
2019-02-19T00:44:56.196Z,215.70
2019-02-19T00:47:41.351Z,225.77
2019-02-19T00:50:26.222Z,195.53
2019-02-19T00:53:07.278Z,237.07
2019-02-19T00:56:01.543Z,217.00
2019-02-19T00:58:43.386Z,196.73
2019-02-19T01:01:24.595Z,245.23
2019-02-19T01:04:11.143Z,196.37
2019-02-19T01:07:38.409Z,163.03
2019-02-19T01:09:52.947Z,175.07
2019-02-19T01:12:40.653Z,171.93
2019-02-19T01:15:25.478Z,157.87
2019-02-19T01:18:03.763Z,142.40
2019-02-19T01:20:46.868Z,217.17
2019-02-19T01:23:28.119Z,172.00
2019-02-19T01:26:09.716Z,197.47
2019-02-19T01:28:50.794Z,221.93
2019-02-19T01:31:33.075Z,174.10
2019-02-19T01:34:14.693Z,211.70
2019-02-19T01:36:56.148Z,166.57
2019-02-19T01:39:59.887Z,187.60
2019-02-19T01:42:48.365Z,190.27
2019-02-19T01:45:34.056Z,164.60
2019-02-19T01:51:18.389Z,175.43
2019-02-19T01:53:59.616Z,180.93
2019-02-19T01:56:43.542Z,207.97
2019-02-19T01:59:24.233Z,202.83
2019-02-19T02:02:06.874Z,211.57
2019-02-19T02:04:48.978Z,183.83
2019-02-19T02:07:29.924Z,196.67
2019-02-19T02:10:31.783Z,223.70
2019-02-19T02:13:13.053Z,155.47
2019-02-19T02:15:55.771Z,175.73
2019-02-19T02:18:42.325Z,180.53
2019-02-19T02:21:23.995Z,169.43
2019-02-19T02:24:07.164Z,156.50
2019-02-19T02:26:53.101Z,195.60
2019-02-19T02:29:39.059Z,172.07
2019-02-19T02:32:20.468Z,154.20
2019-02-19T02:35:04.232Z,183.37
2019-02-19T02:37:45.588Z,182.37
2019-02-19T02:40:30.436Z,197.80
2019-02-19T02:43:14.462Z,155.37
2019-02-19T02:45:57.142Z,167.23
2019-02-19T02:48:41.091Z,209.47
2019-02-19T02:51:21.786Z,197.93
2019-02-19T02:54:07.673Z,164.63
2019-02-19T02:56:50.636Z,142.73
2019-02-19T02:59:31.545Z,151.20
2019-02-19T03:02:16.588Z,201.03
2019-02-19T03:04:58.364Z,190.20
2019-02-19T03:10:32.798Z,139.73
2019-02-19T03:16:25.568Z,140.73
2019-02-19T03:19:07.103Z,160.07
2019-02-19T03:21:50.638Z,156.03
2019-02-19T03:24:34.399Z,138.67
2019-02-19T03:27:21.286Z,145.23
2019-02-19T03:30:02.147Z,153.70
2019-02-19T03:32:50.257Z,137.23
2019-02-19T03:35:39.402Z,172.63
2019-02-19T03:38:20.287Z,172.13
2019-02-19T03:44:00.177Z,158.83
2019-02-19T03:46:44.455Z,145.63
2019-02-19T03:49:25.952Z,128.57
2019-02-19T03:52:08.528Z,143.50
2019-02-19T03:54:49.559Z,143.43
2019-02-19T03:57:30.557Z,141.10
2019-02-19T04:00:12.346Z,133.37
2019-02-19T04:02:56.439Z,136.60
2019-02-19T04:05:40.734Z,130.00
2019-02-19T04:08:22.470Z,175.20
2019-02-19T04:11:03.900Z,132.67
2019-02-19T04:13:45.701Z,152.20
2019-02-19T04:16:29.755Z,160.30
2019-02-19T04:19:10.806Z,138.07
2019-02-19T04:21:54.545Z,112.17
2019-02-19T04:24:35.395Z,115.07
2019-02-19T04:27:17.445Z,127.70
2019-02-19T04:29:59.966Z,160.93
2019-02-19T04:32:41.074Z,138.27
2019-02-19T04:35:23.065Z,174.40
2019-02-19T04:38:04.670Z,161.90
2019-02-19T04:40:49.517Z,141.37
2019-02-19T04:43:31.357Z,128.27
2019-02-19T04:46:13.138Z,144.80
2019-02-19T04:48:54.706Z,142.90
2019-02-19T04:51:35.812Z,131.03
2019-02-19T04:54:19.827Z,136.67
2019-02-19T04:57:06.333Z,127.10
2019-02-19T04:59:49.927Z,140.80
2019-02-19T05:02:31.352Z,147.30
2019-02-19T05:05:00.870Z,139.07
2019-02-19T05:07:49.699Z,133.27
2019-02-19T05:10:50.833Z,147.73
2019-02-19T05:13:32.985Z,126.20
2019-02-19T05:16:17.341Z,106.33
2019-02-19T05:19:10.878Z,147.30
2019-02-19T05:21:52.991Z,120.23
2019-02-19T05:28:07.290Z,127.23
2019-02-19T05:30:49.622Z,101.37
2019-02-19T05:33:32.096Z,122.57
2019-02-19T05:36:13.726Z,123.33
2019-02-19T05:38:59.006Z,137.90
2019-02-19T05:41:43.711Z,118.73
2019-02-19T05:44:28.102Z,109.00
2019-02-19T05:47:15.153Z,132.47
2019-02-19T05:49:56.973Z,110.57
2019-02-19T05:52:38.445Z,118.80
2019-02-19T05:55:20.227Z,111.63
2019-02-19T05:58:01.372Z,110.00
2019-02-19T06:03:45.853Z,117.07
2019-02-19T06:06:29.030Z,98.13
2019-02-19T06:09:19.686Z,122.63
2019-02-19T06:15:04.919Z,132.97
2019-02-19T06:18:06.698Z,112.43
2019-02-19T06:20:48.645Z,103.53
2019-02-19T06:23:30.631Z,117.00
2019-02-19T06:29:11.626Z,121.90
2019-02-19T06:35:01.795Z,95.37
2019-02-19T06:37:44.807Z,106.03
2019-02-19T06:43:32.757Z,111.77
2019-02-19T06:46:13.439Z,92.10
2019-02-19T06:49:01.388Z,98.60
2019-02-19T06:51:42.762Z,99.67
2019-02-19T06:54:35.482Z,110.73
2019-02-19T06:57:16.451Z,106.27
2019-02-19T06:59:57.718Z,108.97
2019-02-19T07:02:59.129Z,138.33
2019-02-19T07:05:43.534Z,115.07
2019-02-19T07:08:28.701Z,135.70
2019-02-19T07:11:10.208Z,119.13
2019-02-19T07:13:50.897Z,130.27
2019-02-19T07:16:32.759Z,120.17
2019-02-19T07:19:14.105Z,113.93
2019-02-19T07:21:55.350Z,117.77
2019-02-19T07:24:36.808Z,124.73
2019-02-19T07:27:18.168Z,132.13
2019-02-19T07:29:59.425Z,133.70
2019-02-19T07:32:40.975Z,125.53
2019-02-19T07:35:21.904Z,133.20
2019-02-19T07:38:01.459Z,122.17
2019-02-19T07:40:49.927Z,126.17
2019-02-19T07:43:31.418Z,126.00
2019-02-19T07:46:12.551Z,118.23
2019-02-19T07:48:53.983Z,124.27
2019-02-19T07:51:34.584Z,126.50
2019-02-19T07:54:15.682Z,124.90
2019-02-19T07:56:56.463Z,125.63
2019-02-19T07:59:37.506Z,135.37
2019-02-19T08:02:17.277Z,136.07
2019-02-19T08:04:46.831Z,137.90
2019-02-19T08:07:35.254Z,136.77
2019-02-19T08:10:16.096Z,130.70
2019-02-19T08:12:56.869Z,127.47
2019-02-19T08:15:38.383Z,131.93
2019-02-19T08:18:19.291Z,136.17
2019-02-19T08:20:59.829Z,134.13
2019-02-19T08:23:41.099Z,140.50
2019-02-19T08:26:22.459Z,132.47
2019-02-19T08:29:13.210Z,128.73
2019-02-19T08:31:47.363Z,128.50
2019-02-19T08:34:27.892Z,125.13
2019-02-19T08:37:09.175Z,132.67
2019-02-19T08:39:50.605Z,126.30
2019-02-19T08:42:31.462Z,120.03
2019-02-19T08:45:12.798Z,129.50
2019-02-19T08:47:54.219Z,120.23
2019-02-19T08:50:34.974Z,129.97
2019-02-19T08:53:15.992Z,126.73
2019-02-19T08:55:57.409Z,121.57
2019-02-19T08:58:38.858Z,120.83
2019-02-19T09:01:20.153Z,123.57
2019-02-19T09:04:00.798Z,117.40
2019-02-19T09:06:40.474Z,117.53
2019-02-19T09:09:28.858Z,113.80
2019-02-19T09:12:11.575Z,116.20
2019-02-19T09:15:00.371Z,106.60
2019-02-19T09:17:51.293Z,108.87
2019-02-19T09:20:25.382Z,121.10
2019-02-19T09:23:06.581Z,120.30
2019-02-19T09:25:48.039Z,119.10
2019-02-19T09:28:29.418Z,116.77
2019-02-19T09:31:11.268Z,119.63
2019-02-19T09:33:53.759Z,121.13
2019-02-19T09:36:36.228Z,121.37
2019-02-19T09:39:17.560Z,125.80
2019-02-19T09:41:58.899Z,123.80
2019-02-19T09:44:40.102Z,128.70
2019-02-19T09:47:20.806Z,124.13
2019-02-19T09:50:01.459Z,129.37
2019-02-19T09:52:42.667Z,120.70
2019-02-19T09:55:23.530Z,123.93
2019-02-19T09:58:04.868Z,125.03
2019-02-19T10:00:46.094Z,133.17
2019-02-19T10:03:26.883Z,133.33
2019-02-19T10:06:08.249Z,129.40
2019-02-19T10:08:48.901Z,132.17
2019-02-19T10:11:30.075Z,128.80
2019-02-19T10:14:11.554Z,127.37
2019-02-19T10:16:53.041Z,126.13
2019-02-19T10:19:34.052Z,128.00
2019-02-19T10:22:14.901Z,129.40
2019-02-19T10:24:56.104Z,123.57
2019-02-19T10:27:37.271Z,127.20
2019-02-19T10:30:18.066Z,121.73
2019-02-19T10:32:59.344Z,118.03
2019-02-19T10:38:38.481Z,115.57
2019-02-19T10:41:19.342Z,117.17
2019-02-19T10:44:00.855Z,117.00
2019-02-19T10:46:41.487Z,122.63
2019-02-19T10:49:22.092Z,115.23
2019-02-19T10:52:01.609Z,111.13
2019-02-19T10:54:51.233Z,115.93
2019-02-19T10:57:32.835Z,111.50
2019-02-19T11:00:14.707Z,114.30
2019-02-19T11:02:56.161Z,118.87
2019-02-19T11:05:37.593Z,116.07
2019-02-19T11:08:18.590Z,115.53
2019-02-19T11:10:58.086Z,126.93
2019-02-19T11:13:46.534Z,125.83
2019-02-19T11:16:27.870Z,120.40
2019-02-19T11:19:09.002Z,120.53
2019-02-19T11:21:49.792Z,115.70
2019-02-19T11:24:31.324Z,110.10
2019-02-19T11:27:12.670Z,117.30
2019-02-19T11:29:54.353Z,113.43
2019-02-19T11:32:35.068Z,113.37
2019-02-19T11:35:16.689Z,118.80
2019-02-19T11:37:57.764Z,114.67
2019-02-19T11:40:39.850Z,111.93
2019-02-19T11:43:20.506Z,114.80
2019-02-19T11:46:01.440Z,111.97
2019-02-19T11:48:43.055Z,116.37
2019-02-19T11:51:23.673Z,100.63
2019-02-19T11:54:06.180Z,110.33
2019-02-19T11:56:47.707Z,107.97
2019-02-19T11:59:28.973Z,106.77
2019-02-19T12:02:13.837Z,105.40
2019-02-19T12:04:55.379Z,107.80
2019-02-19T12:07:36.795Z,104.97
2019-02-19T12:10:18.147Z,108.13
2019-02-19T12:13:01.730Z,104.87
2019-02-19T12:15:42.627Z,114.30
2019-02-19T12:18:23.887Z,111.57
2019-02-19T12:21:04.548Z,111.73
2019-02-19T12:23:45.231Z,109.23
2019-02-19T12:26:26.508Z,112.93
2019-02-19T12:29:07.114Z,109.53
2019-02-19T12:31:48.350Z,111.23
2019-02-19T12:34:29.839Z,109.40
2019-02-19T12:37:11.313Z,107.10
2019-02-19T12:39:52.368Z,106.53
2019-02-19T12:42:35.813Z,108.90
2019-02-19T12:45:18.115Z,108.57
2019-02-19T12:47:59.446Z,100.43
2019-02-19T12:50:40.105Z,104.27
2019-02-19T12:53:21.437Z,106.07
2019-02-19T12:56:00.964Z,103.17
2019-02-19T12:58:42.452Z,106.10
2019-02-19T13:01:23.827Z,105.03
2019-02-19T13:04:04.660Z,104.47
2019-02-19T13:06:45.261Z,100.20
2019-02-19T13:09:26.581Z,97.17
2019-02-19T13:12:08.098Z,100.93
2019-02-19T13:14:49.355Z,101.90
2019-02-19T13:17:29.958Z,100.73
2019-02-19T13:20:11.168Z,103.37
2019-02-19T13:22:52.161Z,100.57
2019-02-19T13:25:35.527Z,101.90
2019-02-19T13:28:16.149Z,94.43
2019-02-19T13:30:58.453Z,96.70
2019-02-19T13:33:38.301Z,97.07
2019-02-19T13:36:47.228Z,96.10
2019-02-19T13:42:31.042Z,99.60
2019-02-19T13:45:11.902Z,94.67
2019-02-19T13:47:53.450Z,101.33
2019-02-19T13:50:34.850Z,96.77
2019-02-19T13:53:34.412Z,96.53
2019-02-19T13:56:15.155Z,93.80
2019-02-19T13:58:55.802Z,99.13
2019-02-19T14:01:37.335Z,100.67
2019-02-19T14:04:16.915Z,94.33
2019-02-19T14:06:58.322Z,95.70
2019-02-19T14:09:42.254Z,96.73
2019-02-19T14:12:23.615Z,93.37
2019-02-19T14:18:19.147Z,93.60
2019-02-19T14:21:14.806Z,99.47
2019-02-19T14:24:14.657Z,95.47
2019-02-19T14:27:14.738Z,95.27
2019-02-19T14:30:15.282Z,94.70
2019-02-19T14:33:18.094Z,91.17
2019-02-19T14:36:17.724Z,91.70
2019-02-19T14:39:17.544Z,94.40
2019-02-19T14:42:13.349Z,94.70
2019-02-19T14:45:01.662Z,92.20
2019-02-19T14:48:02.742Z,91.13
2019-02-19T14:51:05.591Z,97.53
2019-02-19T14:54:05.155Z,92.70
2019-02-19T14:57:05.483Z,93.57
2019-02-19T15:00:15.200Z,89.07
2019-02-19T15:03:00.367Z,92.17
2019-02-19T15:06:00.792Z,93.30
2019-02-19T15:09:00.978Z,91.33
2019-02-19T15:11:49.862Z,84.40
2019-02-19T15:14:49.794Z,87.50
2019-02-19T15:17:37.085Z,88.40
2019-02-19T15:20:34.785Z,87.23
2019-02-19T15:23:34.561Z,89.37
2019-02-19T15:26:34.155Z,88.60
2019-02-19T15:29:34.529Z,90.30
2019-02-19T15:32:34.434Z,106.87
2019-02-19T15:35:40.370Z,103.03
2019-02-19T15:38:40.569Z,103.53
2019-02-19T15:41:40.277Z,102.40
2019-02-19T15:44:35.644Z,98.20
2019-02-19T15:47:36.175Z,96.17
2019-02-19T15:50:36.489Z,95.87
2019-02-19T15:53:39.374Z,97.20
2019-02-19T15:56:39.588Z,96.43
2019-02-19T15:59:45.383Z,99.57
2019-02-19T16:02:45.681Z,104.37
2019-02-19T16:05:53.181Z,105.67
2019-02-19T16:09:00.559Z,101.83
2019-02-19T16:11:55.300Z,95.13
2019-02-19T16:14:50.144Z,100.03
2019-02-19T16:17:56.114Z,112.23
2019-02-19T16:20:53.693Z,115.83
2019-02-19T16:23:57.231Z,115.07
2019-02-19T16:26:57.644Z,104.07
2019-02-19T16:29:55.539Z,103.23
2019-02-19T16:32:56.070Z,101.53
2019-02-19T16:35:43.371Z,103.70
2019-02-19T16:38:46.515Z,106.53
2019-02-19T16:41:46.703Z,107.93
2019-02-19T16:44:46.564Z,102.73
2019-02-19T16:47:46.671Z,103.07
2019-02-19T16:50:47.078Z,104.17
2019-02-19T16:53:47.422Z,101.77
2019-02-19T16:56:47.856Z,100.77
2019-02-19T16:59:37.710Z,109.20
2019-02-19T17:02:45.125Z,105.63
2019-02-19T17:05:35.561Z,99.43
2019-02-19T17:08:38.205Z,100.70
2019-02-19T17:11:38.566Z,104.73
2019-02-19T17:14:38.161Z,98.60
2019-02-19T17:17:35.652Z,105.50
2019-02-19T17:20:36.102Z,104.43
2019-02-19T17:23:36.243Z,99.27
2019-02-19T17:26:38.933Z,109.40
2019-02-19T17:29:39.346Z,102.07
2019-02-19T17:32:41.462Z,103.50
2019-02-19T17:35:31.647Z,105.93
2019-02-19T17:38:34.573Z,102.30
2019-02-19T17:41:32.938Z,98.97
2019-02-19T17:44:32.643Z,97.40
2019-02-19T17:47:30.668Z,108.23
2019-02-19T17:50:21.398Z,114.77
2019-02-19T17:53:21.793Z,110.37
2019-02-19T17:56:25.067Z,105.80
2019-02-19T17:59:24.821Z,100.57
2019-02-19T18:02:27.715Z,106.23
2019-02-19T18:05:30.671Z,110.50
2019-02-19T18:08:20.006Z,110.00
2019-02-19T18:11:22.837Z,112.03
2019-02-19T18:14:19.407Z,113.77
2019-02-19T18:17:06.636Z,101.73
2019-02-19T18:19:47.455Z,101.97
2019-02-19T18:22:28.884Z,101.13
2019-02-19T18:25:10.703Z,108.40
2019-02-19T18:27:51.498Z,106.33
2019-02-19T18:30:32.478Z,106.93
2019-02-19T18:33:13.115Z,111.63
2019-02-19T18:35:54.670Z,101.13
2019-02-19T18:38:35.312Z,111.67
2019-02-19T18:41:15.948Z,108.63
2019-02-19T18:43:57.586Z,112.20
2019-02-19T18:49:46.652Z,108.73
2019-02-19T18:52:31.032Z,116.13
2019-02-19T18:55:12.463Z,118.03
2019-02-19T18:57:53.369Z,113.63
2019-02-19T19:00:34.459Z,111.27
2019-02-19T19:03:21.772Z,114.33
2019-02-19T19:06:03.274Z,113.93
2019-02-19T19:08:44.190Z,109.63
2019-02-19T19:11:26.129Z,108.97
2019-02-19T19:14:06.822Z,114.27
2019-02-19T19:16:47.854Z,116.87
2019-02-19T19:19:30.551Z,112.73
2019-02-19T19:22:13.416Z,111.30
2019-02-19T19:24:55.180Z,110.40
2019-02-19T19:27:36.182Z,116.73
2019-02-19T19:30:20.226Z,128.20
2019-02-19T19:33:05.047Z,118.73
2019-02-19T19:35:53.622Z,113.90
2019-02-19T19:38:43.636Z,117.77
2019-02-19T19:41:25.192Z,118.17
2019-02-19T19:47:26.763Z,123.33
2019-02-19T19:50:16.033Z,121.07
2019-02-19T19:53:00.914Z,125.43
2019-02-19T19:55:42.071Z,119.43
2019-02-19T19:58:23.462Z,118.03
2019-02-19T20:01:06.507Z,117.00
2019-02-19T20:06:51.191Z,114.67
2019-02-19T20:09:41.019Z,120.50
2019-02-19T20:12:22.678Z,123.90
2019-02-19T20:15:03.609Z,119.90
2019-02-19T20:17:45.196Z,125.80
2019-02-19T20:20:32.273Z,114.33
2019-02-19T20:23:13.367Z,110.10
2019-02-19T20:25:54.700Z,110.30
2019-02-19T20:31:40.050Z,110.10
2019-02-19T20:34:22.084Z,108.90
2019-02-19T20:37:10.997Z,108.47
2019-02-19T20:40:18.995Z,106.50
2019-02-19T20:43:00.757Z,107.70
2019-02-19T20:45:43.899Z,113.77
2019-02-19T20:48:26.219Z,114.60
2019-02-19T20:51:07.857Z,111.57
2019-02-19T20:53:50.757Z,113.20
2019-02-19T20:56:35.503Z,114.83
2019-02-19T20:59:17.082Z,109.67
2019-02-19T21:01:58.326Z,111.83
2019-02-19T21:04:41.986Z,114.37
2019-02-19T21:07:23.488Z,113.57
2019-02-19T21:10:04.658Z,110.67
2019-02-19T21:12:45.552Z,118.37
2019-02-19T21:15:26.415Z,113.03
2019-02-19T21:18:08.958Z,114.47
2019-02-19T21:20:51.017Z,114.97
2019-02-19T21:23:33.410Z,113.33
2019-02-19T21:26:16.127Z,112.57
2019-02-19T21:28:59.048Z,116.07
2019-02-19T21:31:40.433Z,116.20
2019-02-19T21:34:21.779Z,115.63
2019-02-19T21:37:03.263Z,118.90
2019-02-19T21:39:44.601Z,117.50
2019-02-19T21:42:29.327Z,121.13
2019-02-19T21:48:17.895Z,115.57
2019-02-19T21:50:59.575Z,123.47
2019-02-19T21:53:40.815Z,110.37
2019-02-19T21:59:30.349Z,113.27
2019-02-19T22:02:16.591Z,119.17
2019-02-19T22:04:59.447Z,117.20
2019-02-19T22:07:41.963Z,122.77
2019-02-19T22:10:23.720Z,115.30
2019-02-19T22:13:07.802Z,120.23
2019-02-19T22:15:49.456Z,116.93
2019-02-19T22:18:30.592Z,110.73
2019-02-19T22:21:17.418Z,116.17
2019-02-19T22:23:58.314Z,116.00
2019-02-19T22:26:39.001Z,118.83
2019-02-19T22:29:23.473Z,113.57
2019-02-19T22:32:05.035Z,117.53
2019-02-19T22:34:46.330Z,117.90
2019-02-19T22:37:28.941Z,109.50
2019-02-19T22:40:09.888Z,107.07
2019-02-19T22:42:50.964Z,106.50
2019-02-19T22:45:36.560Z,117.67
2019-02-19T22:48:19.715Z,111.17
2019-02-19T22:51:01.237Z,109.87
2019-02-19T22:54:02.487Z,111.20
2019-02-19T22:56:45.232Z,113.40
2019-02-19T22:59:34.097Z,114.47
2019-02-19T23:02:20.865Z,110.27
2019-02-19T23:05:02.648Z,113.30
2019-02-19T23:07:43.323Z,124.13
2019-02-19T23:11:05.841Z,116.90
2019-02-19T23:13:48.229Z,114.77
2019-02-19T23:16:47.991Z,117.57
2019-02-19T23:19:19.310Z,115.10
2019-02-19T23:22:00.692Z,113.93
2019-02-19T23:24:42.195Z,113.60
2019-02-19T23:27:23.649Z,110.90
2019-02-19T23:30:05.044Z,115.40
2019-02-19T23:32:47.295Z,111.20
2019-02-19T23:35:55.028Z,111.53
2019-02-19T23:38:37.690Z,113.10
2019-02-19T23:41:20.268Z,112.87
2019-02-19T23:44:03.081Z,108.87
2019-02-19T23:46:44.440Z,116.40
2019-02-19T23:49:25.514Z,109.47
2019-02-19T23:52:07.198Z,109.43
2019-02-19T23:54:48.347Z,116.30
2019-02-19T23:57:32.227Z,111.53
